createdAt,value
2018-07-21T00:01:27.159Z,99.90
2018-07-21T00:03:56.711Z,99.90
2018-07-21T00:06:26.107Z,99.90
2018-07-21T00:08:55.590Z,99.90
2018-07-21T00:11:25.108Z,99.90
2018-07-21T00:13:54.472Z,99.90
2018-07-21T00:16:23.968Z,99.90
2018-07-21T00:18:53.403Z,99.90
2018-07-21T00:21:22.746Z,99.90
2018-07-21T00:23:52.252Z,99.90
2018-07-21T00:26:21.807Z,99.90
2018-07-21T00:28:51.279Z,99.90
2018-07-21T00:31:20.719Z,99.90
2018-07-21T00:33:50.120Z,99.90
2018-07-21T00:36:19.519Z,99.90
2018-07-21T00:38:49.099Z,99.90
2018-07-21T00:41:18.528Z,99.90
2018-07-21T00:43:47.907Z,99.90
2018-07-21T00:46:17.279Z,99.90
2018-07-21T00:48:46.815Z,99.90
2018-07-21T00:51:16.287Z,99.90
2018-07-21T00:53:45.847Z,99.90
2018-07-21T00:56:15.347Z,99.90
2018-07-21T00:58:44.707Z,99.90
2018-07-21T01:01:14.321Z,99.90
2018-07-21T01:03:43.710Z,99.90
2018-07-21T01:06:13.079Z,99.90
2018-07-21T01:08:42.557Z,99.90
2018-07-21T01:11:12.208Z,99.90
2018-07-21T01:13:41.646Z,99.90
2018-07-21T01:16:11.220Z,99.90
2018-07-21T01:18:40.625Z,99.90
2018-07-21T01:21:10.232Z,99.90
2018-07-21T01:23:39.652Z,99.90
2018-07-21T01:26:09.260Z,99.90
2018-07-21T01:28:38.703Z,99.90
2018-07-21T01:31:08.133Z,99.90
2018-07-21T01:33:37.722Z,99.90
2018-07-21T01:36:07.359Z,99.90
2018-07-21T01:38:37.311Z,99.90
2018-07-21T01:41:06.843Z,99.90
2018-07-21T01:43:36.242Z,99.90
2018-07-21T01:46:05.994Z,99.90
2018-07-21T01:48:35.702Z,99.90
2018-07-21T01:51:05.223Z,99.90
2018-07-21T01:53:35.405Z,99.90
2018-07-21T01:56:04.824Z,99.90
2018-07-21T01:58:34.339Z,99.90
2018-07-21T02:01:04.395Z,99.90
2018-07-21T02:03:33.876Z,99.90
2018-07-21T02:06:03.826Z,99.90
2018-07-21T02:08:33.415Z,99.90
2018-07-21T02:11:02.737Z,99.90
2018-07-21T02:13:32.893Z,99.90
2018-07-21T02:16:02.441Z,99.90
2018-07-21T02:18:32.166Z,99.90
2018-07-21T02:21:01.901Z,99.90
2018-07-21T02:23:31.763Z,99.90
2018-07-21T02:26:01.372Z,99.90
2018-07-21T02:28:30.707Z,99.90
2018-07-21T02:31:00.111Z,99.90
2018-07-21T02:33:29.689Z,99.90
2018-07-21T02:35:59.216Z,99.90
2018-07-21T02:38:28.713Z,99.90
2018-07-21T02:40:58.504Z,99.90
2018-07-21T02:43:28.443Z,99.90
2018-07-21T02:45:58.308Z,99.90
2018-07-21T02:48:27.827Z,99.90
2018-07-21T02:50:57.493Z,99.90
2018-07-21T02:53:27.154Z,99.90
2018-07-21T02:55:56.592Z,99.90
2018-07-21T02:58:25.946Z,99.90
2018-07-21T03:00:55.236Z,99.90
2018-07-21T03:03:24.633Z,99.90
2018-07-21T03:05:53.975Z,99.90
2018-07-21T03:08:24.755Z,99.90
2018-07-21T03:10:54.046Z,99.90
2018-07-21T03:13:23.476Z,99.90
2018-07-21T03:15:52.754Z,99.90
2018-07-21T03:18:22.289Z,99.90
2018-07-21T03:20:51.587Z,99.90
2018-07-21T03:23:20.987Z,99.90
2018-07-21T03:25:50.308Z,99.90
2018-07-21T03:28:19.583Z,99.90
2018-07-21T03:30:49.015Z,99.90
2018-07-21T03:33:18.342Z,99.90
2018-07-21T03:35:47.734Z,99.90
2018-07-21T03:38:17.059Z,99.90
2018-07-21T03:40:46.321Z,99.90
2018-07-21T03:43:15.591Z,99.90
2018-07-21T03:45:45.203Z,99.90
2018-07-21T03:48:14.476Z,99.90
2018-07-21T03:50:43.774Z,99.90
2018-07-21T03:53:13.182Z,99.90
2018-07-21T03:55:42.526Z,99.90
2018-07-21T03:58:11.859Z,99.90
2018-07-21T04:00:41.200Z,99.90
2018-07-21T04:03:10.581Z,99.90
2018-07-21T04:05:39.867Z,99.90
2018-07-21T04:08:09.332Z,99.90
2018-07-21T04:10:38.664Z,99.90
2018-07-21T04:13:08.404Z,99.90
2018-07-21T04:15:37.701Z,99.90
2018-07-21T04:18:07.308Z,99.90
2018-07-21T04:20:36.701Z,99.90
2018-07-21T04:23:06.595Z,99.90
2018-07-21T04:25:36.039Z,99.90
2018-07-21T04:28:06.047Z,99.90
2018-07-21T04:30:35.642Z,99.90
2018-07-21T04:33:05.114Z,99.90
2018-07-21T04:35:34.515Z,99.90
2018-07-21T04:38:03.789Z,99.90
2018-07-21T04:40:33.259Z,99.90
2018-07-21T04:43:02.875Z,99.90
2018-07-21T04:45:32.383Z,99.90
2018-07-21T04:48:01.995Z,99.90
2018-07-21T04:50:31.485Z,99.90
2018-07-21T04:53:00.807Z,99.90
2018-07-21T04:55:30.398Z,99.90
2018-07-21T04:57:59.780Z,99.90
2018-07-21T05:00:29.074Z,99.90
2018-07-21T05:02:58.382Z,99.90
2018-07-21T05:05:27.683Z,99.90
2018-07-21T05:07:57.226Z,99.90
2018-07-21T05:10:26.871Z,99.90
2018-07-21T05:12:56.475Z,99.90
2018-07-21T05:15:25.799Z,99.90
2018-07-21T05:17:55.276Z,99.90
2018-07-21T05:20:24.671Z,99.90
2018-07-21T05:22:53.998Z,99.90
2018-07-21T05:25:23.417Z,99.90
2018-07-21T05:27:52.871Z,99.90
2018-07-21T05:30:22.162Z,99.90
2018-07-21T05:32:51.555Z,99.90
2018-07-21T05:35:20.818Z,99.90
2018-07-21T05:37:50.235Z,99.90
2018-07-21T05:40:19.552Z,99.90
2018-07-21T05:42:48.910Z,99.90
2018-07-21T05:45:18.366Z,99.90
2018-07-21T05:47:47.871Z,99.90
2018-07-21T05:50:17.159Z,99.90
2018-07-21T05:52:46.502Z,99.90
2018-07-21T05:55:15.931Z,99.90
2018-07-21T05:57:45.323Z,99.90
2018-07-21T06:00:14.659Z,99.90
2018-07-21T06:02:44.171Z,99.90
2018-07-21T06:05:13.429Z,99.90
2018-07-21T06:10:11.706Z,99.90
2018-07-21T06:12:41.169Z,99.90
2018-07-21T06:15:10.479Z,99.90
2018-07-21T06:17:39.775Z,99.90
2018-07-21T06:20:09.252Z,99.90
2018-07-21T06:22:38.535Z,99.90
2018-07-21T06:25:08.010Z,99.90
2018-07-21T06:27:37.318Z,99.90
2018-07-21T06:30:07.063Z,99.90
2018-07-21T06:32:36.468Z,99.90
2018-07-21T06:35:05.955Z,99.90
2018-07-21T06:37:35.375Z,99.90
2018-07-21T06:40:05.393Z,99.90
2018-07-21T06:42:34.892Z,99.90
2018-07-21T06:45:04.350Z,99.90
2018-07-21T06:47:33.679Z,99.90
2018-07-21T06:52:32.205Z,99.90
2018-07-21T06:55:01.896Z,99.90
2018-07-21T06:57:31.420Z,99.90
2018-07-21T07:00:00.908Z,99.90
2018-07-21T07:02:30.335Z,99.90
2018-07-21T07:04:59.647Z,99.90
2018-07-21T07:07:29.131Z,99.90
2018-07-21T07:09:58.919Z,99.90
2018-07-21T07:12:28.362Z,99.90
2018-07-21T07:14:58.029Z,99.90
2018-07-21T07:17:27.634Z,99.90
2018-07-21T07:19:57.306Z,99.90
2018-07-21T07:22:26.947Z,99.90
2018-07-21T07:24:56.805Z,99.90
2018-07-21T07:27:26.277Z,99.90
2018-07-21T07:29:55.703Z,99.90
2018-07-21T07:32:25.142Z,99.90
2018-07-21T07:34:54.647Z,99.90
2018-07-21T07:37:24.219Z,99.90
2018-07-21T07:39:53.811Z,99.90
2018-07-21T07:42:23.715Z,99.90
2018-07-21T07:44:53.252Z,99.90
2018-07-21T07:47:22.671Z,99.90
2018-07-21T07:49:51.999Z,99.90
2018-07-21T07:52:21.480Z,99.90
2018-07-21T07:54:51.403Z,99.90
2018-07-21T07:57:20.843Z,99.90
2018-07-21T07:59:50.371Z,99.90
2018-07-21T08:02:19.988Z,99.90
2018-07-21T08:04:49.327Z,99.90
2018-07-21T08:07:18.669Z,99.90
2018-07-21T08:09:48.060Z,99.90
2018-07-21T08:12:17.593Z,99.90
2018-07-21T08:14:47.087Z,99.90
2018-07-21T08:17:16.589Z,99.90
2018-07-21T08:19:45.847Z,99.90
2018-07-21T08:22:15.505Z,99.90
2018-07-21T08:24:45.709Z,99.90
2018-07-21T08:27:15.295Z,99.90
2018-07-21T08:29:45.099Z,99.90
2018-07-21T08:32:14.596Z,99.90
2018-07-21T08:34:44.001Z,99.90
2018-07-21T08:37:13.960Z,99.90
2018-07-21T08:39:43.805Z,99.90
2018-07-21T08:42:13.399Z,99.90
2018-07-21T08:44:42.957Z,99.90
2018-07-21T08:47:12.665Z,99.90
2018-07-21T08:49:42.194Z,99.90
2018-07-21T08:52:11.825Z,99.90
2018-07-21T08:54:41.166Z,99.90
2018-07-21T08:57:10.651Z,99.90
2018-07-21T08:59:39.987Z,99.90
2018-07-21T09:02:09.741Z,99.90
2018-07-21T09:04:39.091Z,99.90
2018-07-21T09:07:08.570Z,99.90
2018-07-21T09:09:37.944Z,99.90
2018-07-21T09:12:07.386Z,99.90
2018-07-21T09:14:36.708Z,99.90
2018-07-21T09:19:34.862Z,99.90
2018-07-21T09:22:04.247Z,99.90
2018-07-21T09:24:33.577Z,99.90
2018-07-21T09:27:02.953Z,99.90
2018-07-21T09:29:32.455Z,99.90
2018-07-21T09:32:01.812Z,99.90
2018-07-21T09:34:31.197Z,99.90
2018-07-21T09:37:00.515Z,99.90
2018-07-21T09:39:30.003Z,99.90
2018-07-21T09:41:59.693Z,99.50
2018-07-21T09:44:29.095Z,99.90
2018-07-21T09:46:58.448Z,99.30
2018-07-21T09:49:27.722Z,98.50
2018-07-21T09:51:57.015Z,98.10
2018-07-21T09:56:55.402Z,99.40
2018-07-21T09:59:24.800Z,95.80
2018-07-21T10:01:54.263Z,96.80
2018-07-21T10:04:23.807Z,96.20
2018-07-21T10:06:53.684Z,97.20
2018-07-21T10:09:23.074Z,97.50
2018-07-21T10:11:52.537Z,96.00
2018-07-21T10:14:24.071Z,94.80
2018-07-21T10:16:55.968Z,96.00
2018-07-21T10:19:25.598Z,96.10
2018-07-21T10:21:55.055Z,94.00
2018-07-21T10:24:29.537Z,91.40
2018-07-21T10:27:04.454Z,92.20
2018-07-21T10:29:33.909Z,86.40
2018-07-21T10:32:04.309Z,85.30
2018-07-21T10:34:34.320Z,88.80
2018-07-21T10:37:03.808Z,88.60
2018-07-21T10:39:33.229Z,89.50
2018-07-21T10:42:02.819Z,90.60
2018-07-21T10:44:32.169Z,82.10
2018-07-21T10:47:01.679Z,83.10
2018-07-21T10:49:31.051Z,77.00
2018-07-21T10:52:00.843Z,75.60
2018-07-21T10:54:30.254Z,81.90
2018-07-21T10:56:59.697Z,76.50
2018-07-21T10:59:29.059Z,77.10
2018-07-21T11:01:58.640Z,77.20
2018-07-21T11:04:28.107Z,72.40
2018-07-21T11:06:57.447Z,73.50
2018-07-21T11:09:27.015Z,73.20
2018-07-21T11:14:25.673Z,72.70
2018-07-21T11:16:55.185Z,69.20
2018-07-21T11:19:24.783Z,71.80
2018-07-21T11:21:54.287Z,69.40
2018-07-21T11:24:23.929Z,68.00
2018-07-21T11:26:53.201Z,67.90
2018-07-21T11:29:22.670Z,69.40
2018-07-21T11:34:21.028Z,75.20
2018-07-21T11:36:50.779Z,75.40
2018-07-21T11:39:20.714Z,75.50
2018-07-21T11:41:50.370Z,72.30
2018-07-21T11:44:20.271Z,72.30
2018-07-21T11:46:49.997Z,73.00
2018-07-21T11:51:48.745Z,74.80
2018-07-21T11:54:19.534Z,72.40
2018-07-21T11:56:49.041Z,75.10
2018-07-21T12:01:47.715Z,72.20
2018-07-21T12:04:17.439Z,71.70
2018-07-21T12:09:16.074Z,70.00
2018-07-21T12:11:45.903Z,68.90
2018-07-21T12:14:15.721Z,72.00
2018-07-21T12:16:45.305Z,71.70
2018-07-21T12:19:14.786Z,68.30
2018-07-21T12:24:13.533Z,66.40
2018-07-21T12:26:43.091Z,66.40
2018-07-21T12:29:12.544Z,67.10
2018-07-21T12:31:41.928Z,72.30
2018-07-21T12:34:11.699Z,67.90
2018-07-21T12:36:41.206Z,68.60
2018-07-21T12:39:11.651Z,69.20
2018-07-21T12:41:41.441Z,70.70
2018-07-21T12:44:11.243Z,74.50
2018-07-21T12:46:41.256Z,72.40
2018-07-21T12:49:10.764Z,69.80
2018-07-21T12:51:40.287Z,66.00
2018-07-21T12:56:39.710Z,66.90
2018-07-21T13:04:07.572Z,68.20
2018-07-21T13:06:37.719Z,68.50
2018-07-21T13:11:37.097Z,68.90
2018-07-21T13:14:06.841Z,66.90
2018-07-21T13:16:36.812Z,70.00
2018-07-21T13:19:06.912Z,66.10
2018-07-21T13:21:36.782Z,66.20
2018-07-21T13:24:06.438Z,67.60
2018-07-21T13:26:35.993Z,66.50
2018-07-21T13:29:05.547Z,66.10
2018-07-21T13:31:34.996Z,64.60
2018-07-21T13:34:05.024Z,64.00
2018-07-21T13:36:34.399Z,65.00
2018-07-21T13:39:06.365Z,64.30
2018-07-21T13:41:36.083Z,65.50
2018-07-21T13:44:05.882Z,69.60
2018-07-21T13:46:35.350Z,70.70
2018-07-21T13:49:05.072Z,71.70
2018-07-21T13:51:35.488Z,69.90
2018-07-21T13:54:05.136Z,66.90
2018-07-21T13:56:34.609Z,67.30
2018-07-21T13:59:04.359Z,70.50
2018-07-21T14:01:34.528Z,71.90
2018-07-21T14:06:33.461Z,71.90
2018-07-21T14:09:03.684Z,72.30
2018-07-21T14:11:33.540Z,72.10
2018-07-21T14:14:03.679Z,74.80
2018-07-21T14:16:33.663Z,74.00
2018-07-21T14:19:03.466Z,73.70
2018-07-21T14:21:33.029Z,75.00
2018-07-21T14:24:03.192Z,73.80
2018-07-21T14:26:32.764Z,73.70
2018-07-21T14:29:02.185Z,73.60
2018-07-21T14:31:31.699Z,74.50
2018-07-21T14:34:01.319Z,75.60
2018-07-21T14:41:29.670Z,76.20
2018-07-21T14:43:59.279Z,73.40
2018-07-21T14:46:29.180Z,71.60
2018-07-21T14:48:59.027Z,72.40
2018-07-21T14:51:29.151Z,72.60
2018-07-21T14:53:59.343Z,72.50
2018-07-21T14:56:29.206Z,74.20
2018-07-21T14:58:59.089Z,73.30
2018-07-21T15:01:29.120Z,74.30
2018-07-21T15:06:28.339Z,75.20
2018-07-21T15:08:58.141Z,75.70
2018-07-21T15:11:27.915Z,75.50
2018-07-21T15:16:26.471Z,78.90
2018-07-21T15:18:57.060Z,78.50
2018-07-21T15:21:26.579Z,80.50
2018-07-21T15:23:56.080Z,80.40
2018-07-21T15:26:25.803Z,83.70
2018-07-21T15:28:55.577Z,88.10
2018-07-21T15:31:25.320Z,91.30
2018-07-21T15:33:55.300Z,93.10
2018-07-21T15:36:24.906Z,94.00
2018-07-21T15:38:54.431Z,95.70
2018-07-21T15:41:23.885Z,99.60
2018-07-21T15:43:53.934Z,99.90
2018-07-21T15:46:23.598Z,99.90
2018-07-21T15:48:53.114Z,99.90
2018-07-21T15:51:23.087Z,99.90
2018-07-21T15:53:52.554Z,99.90
2018-07-21T15:56:22.158Z,99.90
2018-07-21T15:58:51.591Z,99.90
2018-07-21T16:01:20.972Z,99.90
2018-07-21T16:03:50.387Z,99.90
2018-07-21T16:06:19.754Z,99.90
2018-07-21T16:08:49.392Z,99.90
2018-07-21T16:11:18.830Z,99.90
2018-07-21T16:13:48.232Z,99.90
2018-07-21T16:16:17.712Z,99.90
2018-07-21T16:18:47.100Z,99.90
2018-07-21T16:21:16.422Z,99.90
2018-07-21T16:23:45.789Z,99.90
2018-07-21T16:26:15.108Z,99.90
2018-07-21T16:28:44.513Z,99.90
2018-07-21T16:31:13.944Z,99.90
2018-07-21T16:33:43.275Z,99.90
2018-07-21T16:36:12.705Z,99.90
2018-07-21T16:38:42.171Z,99.90
2018-07-21T16:41:11.319Z,99.90
2018-07-21T16:43:39.816Z,99.90
2018-07-21T16:46:09.404Z,99.90
2018-07-21T16:48:38.864Z,99.90
2018-07-21T16:51:07.480Z,99.90
2018-07-21T16:53:36.826Z,99.90
2018-07-21T16:56:06.306Z,99.90
2018-07-21T16:58:35.811Z,99.90
2018-07-21T17:01:05.227Z,99.90
2018-07-21T17:03:34.846Z,99.90
2018-07-21T17:06:04.845Z,99.90
2018-07-21T17:08:34.300Z,99.90
2018-07-21T17:11:03.854Z,99.90
2018-07-21T17:13:33.479Z,99.90
2018-07-21T17:16:03.397Z,99.90
2018-07-21T17:18:32.943Z,99.90
2018-07-21T17:21:02.849Z,99.90
2018-07-21T17:23:33.003Z,99.90
2018-07-21T17:26:02.540Z,99.90
2018-07-21T17:28:32.042Z,99.90
2018-07-21T17:31:01.854Z,99.90
2018-07-21T17:33:31.417Z,99.90
2018-07-21T17:36:01.057Z,99.90
2018-07-21T17:38:30.647Z,99.90
2018-07-21T17:41:00.579Z,99.90
2018-07-21T17:43:30.178Z,99.90
2018-07-21T17:45:59.849Z,99.90
2018-07-21T17:48:29.299Z,99.90
2018-07-21T17:50:58.938Z,99.90
2018-07-21T17:53:28.559Z,99.90
2018-07-21T17:55:58.049Z,99.90
2018-07-21T17:58:27.485Z,99.90
2018-07-21T18:00:56.959Z,99.90
2018-07-21T18:03:26.332Z,99.90
2018-07-21T18:05:55.935Z,99.90
2018-07-21T18:08:25.583Z,99.90
2018-07-21T18:10:55.116Z,99.90
2018-07-21T18:13:24.493Z,99.90
2018-07-21T18:15:54.143Z,99.90
2018-07-21T18:18:23.644Z,99.90
2018-07-21T18:20:53.380Z,99.90
2018-07-21T18:23:23.182Z,99.90
2018-07-21T18:25:52.972Z,99.90
2018-07-21T18:28:22.440Z,99.90
2018-07-21T18:30:51.947Z,99.90
2018-07-21T18:33:22.286Z,99.90
2018-07-21T18:35:51.744Z,99.90
2018-07-21T18:38:21.203Z,99.90
2018-07-21T18:40:50.588Z,99.90
2018-07-21T18:43:20.010Z,99.90
2018-07-21T18:45:49.362Z,99.90
2018-07-21T18:48:18.959Z,99.90
2018-07-21T18:50:48.444Z,99.90
2018-07-21T18:53:18.838Z,99.90
2018-07-21T18:55:48.328Z,99.90
2018-07-21T18:58:17.679Z,99.90
2018-07-21T19:00:47.045Z,99.90
2018-07-21T19:03:16.444Z,99.90
2018-07-21T19:05:45.765Z,99.90
2018-07-21T19:08:20.441Z,99.90
2018-07-21T19:10:50.476Z,99.90
2018-07-21T19:13:20.004Z,99.90
2018-07-21T19:15:54.857Z,99.90
2018-07-21T19:18:24.447Z,99.90
2018-07-21T19:20:59.329Z,99.90
2018-07-21T19:23:29.336Z,99.90
2018-07-21T19:26:04.421Z,99.90
2018-07-21T19:28:34.309Z,99.90
2018-07-21T19:31:03.747Z,99.90
2018-07-21T19:33:33.540Z,99.90
2018-07-21T19:36:03.151Z,99.90
2018-07-21T19:38:33.018Z,99.90
2018-07-21T19:41:07.645Z,99.90
2018-07-21T19:43:37.503Z,99.90
2018-07-21T19:46:07.399Z,99.90
2018-07-21T19:48:36.851Z,99.90
2018-07-21T19:51:06.482Z,99.90
2018-07-21T19:53:35.898Z,99.90
2018-07-21T19:56:05.907Z,99.90
2018-07-21T19:58:35.335Z,99.90
2018-07-21T20:01:04.893Z,99.90
2018-07-21T20:03:34.530Z,99.90
2018-07-21T20:06:04.186Z,99.90
2018-07-21T20:08:33.699Z,99.90
2018-07-21T20:11:03.860Z,99.90
2018-07-21T20:13:33.628Z,99.90
2018-07-21T20:16:03.096Z,99.90
2018-07-21T20:18:32.776Z,99.90
2018-07-21T20:21:02.634Z,99.90
2018-07-21T20:23:32.071Z,99.90
2018-07-21T20:26:01.553Z,99.90
2018-07-21T20:28:31.231Z,99.90
2018-07-21T20:31:00.733Z,99.90
2018-07-21T20:33:30.293Z,99.90
2018-07-21T20:36:00.096Z,99.90
2018-07-21T20:38:29.527Z,99.90
2018-07-21T20:40:58.907Z,99.90
2018-07-21T20:43:28.601Z,99.90
2018-07-21T20:45:58.103Z,99.90
2018-07-21T20:48:27.685Z,99.90
2018-07-21T20:50:57.048Z,99.90
2018-07-21T20:53:26.859Z,99.90
2018-07-21T20:55:56.269Z,99.90
2018-07-21T20:58:26.072Z,99.90
2018-07-21T21:00:55.564Z,99.90
2018-07-21T21:03:25.123Z,99.90
2018-07-21T21:05:54.715Z,99.90
2018-07-21T21:08:24.215Z,99.90
2018-07-21T21:10:53.780Z,99.90
2018-07-21T21:13:23.338Z,99.90
2018-07-21T21:15:52.846Z,99.90
2018-07-21T21:18:22.492Z,99.90
2018-07-21T21:20:52.254Z,99.90
2018-07-21T21:25:50.769Z,99.90
2018-07-21T21:28:20.437Z,99.90
2018-07-21T21:30:50.106Z,99.90
2018-07-21T21:33:20.053Z,99.90
2018-07-21T21:35:49.695Z,99.90
2018-07-21T21:38:19.592Z,99.90
2018-07-21T21:40:49.006Z,99.90
2018-07-21T21:43:18.511Z,99.90
2018-07-21T21:45:47.808Z,99.90
2018-07-21T21:48:17.368Z,99.90
2018-07-21T21:50:46.794Z,99.90
2018-07-21T21:53:16.270Z,99.90
2018-07-21T21:55:45.931Z,99.90
2018-07-21T21:58:15.484Z,99.90
2018-07-21T22:01:17.931Z,99.90
2018-07-21T22:03:47.296Z,99.90
2018-07-21T22:06:16.763Z,99.90
2018-07-21T22:08:46.338Z,99.90
2018-07-21T22:11:15.749Z,99.90
2018-07-21T22:13:45.119Z,99.90
2018-07-21T22:16:14.519Z,99.90
2018-07-21T22:18:44.024Z,99.90
2018-07-21T22:21:13.539Z,99.90
2018-07-21T22:23:42.956Z,99.90
2018-07-21T22:26:12.482Z,99.90
2018-07-21T22:28:42.013Z,99.90
2018-07-21T22:31:11.540Z,99.90
2018-07-21T22:33:41.046Z,99.90
2018-07-21T22:36:10.650Z,99.90
2018-07-21T22:38:40.148Z,99.90
2018-07-21T22:41:09.758Z,99.90
2018-07-21T22:43:39.181Z,99.90
2018-07-21T22:46:08.727Z,99.90
2018-07-21T22:48:38.383Z,99.90
2018-07-21T22:51:07.829Z,99.90
2018-07-21T22:53:37.682Z,99.90
2018-07-21T22:56:07.665Z,99.90
2018-07-21T22:58:37.240Z,99.90
2018-07-21T23:01:06.821Z,99.90
2018-07-21T23:03:36.548Z,99.90
2018-07-21T23:06:06.173Z,99.90
2018-07-21T23:08:35.819Z,99.90
2018-07-21T23:11:05.314Z,99.90
2018-07-21T23:13:34.752Z,99.90
2018-07-21T23:16:04.220Z,99.90
2018-07-21T23:18:33.715Z,99.90
2018-07-21T23:21:03.263Z,99.90
2018-07-21T23:23:32.696Z,99.90
2018-07-21T23:26:02.177Z,99.90
2018-07-21T23:28:31.588Z,99.90
2018-07-21T23:31:01.103Z,99.90
2018-07-21T23:33:32.036Z,99.90
2018-07-21T23:36:01.839Z,99.90
2018-07-21T23:38:31.176Z,99.90
2018-07-21T23:41:00.696Z,99.90
2018-07-21T23:43:30.161Z,99.90
2018-07-21T23:45:59.694Z,99.90
2018-07-21T23:48:29.153Z,99.90
2018-07-21T23:50:58.893Z,99.90
2018-07-21T23:53:28.692Z,99.90
2018-07-21T23:55:58.439Z,99.90
2018-07-21T23:58:27.843Z,99.90
